createdAt,value
2023-04-06T00:00:42.370Z,98847.27
2023-04-06T00:03:24.956Z,98853.11
2023-04-06T00:05:54.466Z,98851.92
2023-04-06T00:08:24.676Z,98845.60
2023-04-06T00:10:52.739Z,98844.58
2023-04-06T00:13:23.552Z,98843.04
2023-04-06T00:15:51.636Z,98848.17
2023-04-06T00:18:20.850Z,98850.40
2023-04-06T00:20:48.971Z,98845.95
2023-04-06T00:23:17.416Z,98844.26
2023-04-06T00:25:46.054Z,98844.59
2023-04-06T00:28:16.036Z,98847.86
2023-04-06T00:30:48.666Z,98845.80
2023-04-06T00:33:16.930Z,98839.48
2023-04-06T00:35:45.045Z,98833.48
2023-04-06T00:38:13.646Z,98837.42
2023-04-06T00:40:45.341Z,98837.61
2023-04-06T00:43:13.982Z,98831.61
2023-04-06T00:45:43.021Z,98829.06
2023-04-06T00:48:11.364Z,98824.95
2023-04-06T00:50:40.706Z,98826.51
2023-04-06T00:53:08.871Z,98824.46
2023-04-06T00:55:43.256Z,98825.49
2023-04-06T00:58:13.181Z,98826.00
2023-04-06T01:00:56.575Z,98823.44
2023-04-06T01:03:26.637Z,98816.77
2023-04-06T01:05:59.357Z,98823.96
2023-04-06T01:08:33.161Z,98812.85
2023-04-06T01:11:13.032Z,98816.27
2023-04-06T01:13:41.269Z,98814.39
2023-04-06T01:16:17.194Z,98813.70
2023-04-06T01:18:58.817Z,98810.63
2023-04-06T01:21:31.115Z,98803.95
2023-04-06T01:24:34.928Z,98808.06
2023-04-06T01:27:16.472Z,98808.57
2023-04-06T01:30:07.471Z,98799.84
2023-04-06T01:32:42.190Z,98802.24
2023-04-06T01:35:11.455Z,98799.68
2023-04-06T01:37:48.064Z,98802.94
2023-04-06T01:40:21.959Z,98801.73
2023-04-06T01:42:51.596Z,98802.25
2023-04-06T01:45:25.745Z,98799.67
2023-04-06T01:47:54.284Z,98801.21
2023-04-06T01:50:24.968Z,98801.55
2023-04-06T01:52:53.317Z,98801.38
2023-04-06T01:55:21.824Z,98795.23
2023-04-06T01:58:10.145Z,98796.42
2023-04-06T02:00:40.340Z,98790.94
2023-04-06T02:03:09.489Z,98788.20
2023-04-06T02:05:40.549Z,98786.50
2023-04-06T02:08:28.217Z,98779.63
2023-04-06T02:10:56.920Z,98774.50
2023-04-06T02:13:33.316Z,98778.95
2023-04-06T02:16:03.610Z,98775.87
2023-04-06T02:18:32.676Z,98777.61
2023-04-06T02:21:00.856Z,98776.58
2023-04-06T02:23:29.575Z,98773.32
2023-04-06T02:25:59.486Z,98767.50
2023-04-06T02:28:27.698Z,98768.70
2023-04-06T02:30:58.691Z,98769.91
2023-04-06T02:33:29.627Z,98769.05
2023-04-06T02:35:57.787Z,98770.08
2023-04-06T02:38:26.608Z,98770.94
2023-04-06T02:40:55.001Z,98772.98
2023-04-06T02:43:27.994Z,98773.33
2023-04-06T02:46:03.575Z,98777.95
2023-04-06T02:48:37.262Z,98780.02
2023-04-06T02:51:06.333Z,98782.41
2023-04-06T02:53:35.321Z,98776.76
2023-04-06T02:56:03.986Z,98772.64
2023-04-06T02:58:46.605Z,98763.73
2023-04-06T03:01:15.963Z,98769.89
2023-04-06T03:03:46.810Z,98774.19
2023-04-06T03:06:21.240Z,98768.36
2023-04-06T03:08:50.987Z,98768.37
2023-04-06T03:11:33.481Z,98764.77
2023-04-06T03:16:56.592Z,98765.11
2023-04-06T03:19:26.324Z,98769.42
2023-04-06T03:24:45.594Z,98766.33
2023-04-06T03:27:21.707Z,98765.96
2023-04-06T03:30:05.406Z,98767.35
2023-04-06T03:32:40.601Z,98775.05
2023-04-06T03:35:10.144Z,98774.54
2023-04-06T03:37:44.839Z,98776.42
2023-04-06T03:40:19.103Z,98778.16
2023-04-06T03:42:55.622Z,98780.89
2023-04-06T03:45:31.813Z,98778.15
2023-04-06T03:48:10.339Z,98777.98
2023-04-06T03:50:46.955Z,98778.98
2023-04-06T03:53:19.030Z,98777.63
2023-04-06T03:56:09.421Z,98776.27
2023-04-06T03:58:51.834Z,98773.02
2023-04-06T04:01:35.046Z,98778.84
2023-04-06T04:04:10.605Z,98785.52
2023-04-06T04:07:00.721Z,98792.03
2023-04-06T04:09:35.975Z,98798.88
2023-04-06T04:12:16.643Z,98795.64
2023-04-06T04:15:04.361Z,98802.32
2023-04-06T04:17:51.914Z,98799.92
2023-04-06T04:20:24.075Z,98797.02
2023-04-06T04:22:53.572Z,98799.40
2023-04-06T04:25:22.810Z,98803.34
2023-04-06T04:28:01.111Z,98797.34
2023-04-06T04:30:40.694Z,98800.94
2023-04-06T04:33:29.479Z,98803.01
2023-04-06T04:36:12.639Z,98796.34
2023-04-06T04:39:18.581Z,98799.44
2023-04-06T04:42:01.785Z,98808.52
2023-04-06T04:44:50.014Z,98801.84
2023-04-06T04:47:34.184Z,98804.23
2023-04-06T04:50:22.727Z,98813.49
2023-04-06T04:53:07.400Z,98813.48
2023-04-06T04:56:03.138Z,98809.38
2023-04-06T04:58:40.779Z,98813.83
2023-04-06T05:01:13.255Z,98806.45
2023-04-06T05:03:45.772Z,98807.31
2023-04-06T05:06:26.825Z,98809.20
2023-04-06T05:09:20.874Z,98807.48
2023-04-06T05:12:04.576Z,98810.92
2023-04-06T05:14:40.046Z,98809.02
2023-04-06T05:17:21.645Z,98809.20
2023-04-06T05:19:54.168Z,98813.66
2023-04-06T05:22:30.294Z,98817.77
2023-04-06T05:25:10.091Z,98818.11
2023-04-06T05:27:41.099Z,98818.28
2023-04-06T05:30:23.473Z,98808.17
2023-04-06T05:32:56.643Z,98810.05
2023-04-06T05:35:31.107Z,98811.77
2023-04-06T05:38:03.644Z,98810.41
2023-04-06T05:40:38.113Z,98812.11
2023-04-06T05:43:08.319Z,98812.61
2023-04-06T05:45:38.619Z,98811.92
2023-04-06T05:48:07.911Z,98812.63
2023-04-06T05:50:37.758Z,98807.81
2023-04-06T05:53:10.418Z,98812.44
2023-04-06T05:55:42.897Z,98812.96
2023-04-06T05:58:21.446Z,98817.59
2023-04-06T06:01:03.015Z,98820.16
2023-04-06T06:03:40.469Z,98820.50
2023-04-06T06:06:09.313Z,98824.10
2023-04-06T06:09:07.005Z,98816.73
2023-04-06T06:11:39.266Z,98821.02
2023-04-06T06:14:09.198Z,98815.01
2023-04-06T06:16:39.555Z,98811.39
2023-04-06T06:19:12.637Z,98817.89
2023-04-06T06:21:44.741Z,98814.65
2023-04-06T06:24:31.630Z,98821.84
2023-04-06T06:27:02.832Z,98821.28
2023-04-06T06:29:36.060Z,98817.14
2023-04-06T06:32:13.228Z,98813.36
2023-04-06T06:34:42.038Z,98814.71
2023-04-06T06:37:10.366Z,98819.66
2023-04-06T06:39:42.290Z,98818.45
2023-04-06T06:42:11.627Z,98816.21
2023-04-06T06:45:03.643Z,98816.21
2023-04-06T06:47:35.566Z,98816.38
2023-04-06T06:50:08.239Z,98818.95
2023-04-06T06:52:42.345Z,98816.00
2023-04-06T06:55:14.701Z,98813.09
2023-04-06T06:57:43.653Z,98810.30
2023-04-06T07:00:15.363Z,98813.02
2023-04-06T07:02:50.405Z,98815.35
2023-04-06T07:05:27.530Z,98822.52
2023-04-06T07:07:58.478Z,98827.65
2023-04-06T07:10:27.774Z,98834.68
2023-04-06T07:12:56.137Z,98833.47
2023-04-06T07:15:25.728Z,98829.00
2023-04-06T07:17:55.761Z,98831.58
2023-04-06T07:20:24.664Z,98829.34
2023-04-06T07:22:53.238Z,98829.33
2023-04-06T07:25:24.299Z,98832.76
2023-04-06T07:27:58.768Z,98826.88
2023-04-06T07:30:29.417Z,98828.39
2023-04-06T07:33:06.771Z,98832.48
2023-04-06T07:35:37.825Z,98836.41
2023-04-06T07:38:06.633Z,98840.17
2023-04-06T07:40:35.793Z,98839.81
2023-04-06T07:43:09.553Z,98839.62
2023-04-06T07:45:38.117Z,98840.13
2023-04-06T07:48:07.604Z,98840.95
2023-04-06T07:50:38.217Z,98837.00
2023-04-06T07:53:07.134Z,98841.14
2023-04-06T07:55:37.767Z,98841.48
2023-04-06T07:58:06.823Z,98842.16
2023-04-06T08:00:39.855Z,98840.76
2023-04-06T08:03:09.111Z,98847.27
2023-04-06T08:05:37.396Z,98848.43
2023-04-06T08:08:08.652Z,98853.73
2023-04-06T08:10:37.140Z,98855.63
2023-04-06T08:13:05.795Z,98855.96
2023-04-06T08:15:44.803Z,98856.14
2023-04-06T08:18:15.357Z,98853.90
2023-04-06T08:20:46.520Z,98856.48
2023-04-06T08:23:21.440Z,98854.76
2023-04-06T08:25:50.462Z,98855.11
2023-04-06T08:28:19.686Z,98853.38
2023-04-06T08:30:47.986Z,98860.25
2023-04-06T08:33:16.738Z,98860.25
2023-04-06T08:35:44.861Z,98855.97
2023-04-06T08:38:13.488Z,98857.86
2023-04-06T08:40:44.621Z,98858.89
2023-04-06T08:43:16.869Z,98858.35
2023-04-06T08:45:45.164Z,98858.17
2023-04-06T08:48:13.494Z,98860.73
2023-04-06T08:50:43.272Z,98860.07
2023-04-06T08:53:11.837Z,98861.77
2023-04-06T08:55:43.023Z,98856.95
2023-04-06T08:58:11.635Z,98859.70
2023-04-06T09:00:40.225Z,98858.67
2023-04-06T09:03:24.941Z,98862.27
2023-04-06T09:05:54.747Z,98858.14
2023-04-06T09:08:28.751Z,98860.38
2023-04-06T09:10:57.011Z,98864.84
2023-04-06T09:13:25.259Z,98870.17
2023-04-06T09:16:04.420Z,98869.65
2023-04-06T09:18:33.382Z,98869.16
2023-04-06T09:21:06.586Z,98877.81
2023-04-06T09:23:36.456Z,98875.09
2023-04-06T09:26:14.787Z,98881.15
2023-04-06T09:28:50.379Z,98880.64
2023-04-06T09:31:27.807Z,98881.50
2023-04-06T09:33:56.390Z,98884.26
2023-04-06T09:36:32.467Z,98884.25
2023-04-06T09:39:05.464Z,98882.70
2023-04-06T09:41:36.248Z,98885.61
2023-04-06T09:44:11.843Z,98888.86
2023-04-06T09:46:55.876Z,98893.34
2023-04-06T09:49:29.020Z,98895.03
2023-04-06T09:52:02.896Z,98898.11
2023-04-06T09:54:32.085Z,98905.67
2023-04-06T09:57:15.815Z,98902.76
2023-04-06T10:00:11.782Z,98905.52
2023-04-06T10:03:01.031Z,98907.63
2023-04-06T10:05:33.435Z,98904.38
2023-04-06T10:08:07.296Z,98907.48
2023-04-06T10:10:35.445Z,98904.23
2023-04-06T10:13:04.803Z,98904.06
2023-04-06T10:15:34.712Z,98905.27
2023-04-06T10:18:03.485Z,98910.80
2023-04-06T10:20:37.030Z,98907.72
2023-04-06T10:23:20.696Z,98911.19
2023-04-06T10:26:00.056Z,98910.70
2023-04-06T10:28:33.964Z,98909.84
2023-04-06T10:31:05.536Z,98911.04
2023-04-06T10:33:36.171Z,98916.56
2023-04-06T10:36:22.609Z,98919.67
2023-04-06T10:38:56.129Z,98919.67
2023-04-06T10:41:24.378Z,98925.89
2023-04-06T10:43:57.778Z,98927.95
2023-04-06T10:46:27.330Z,98923.81
2023-04-06T10:48:57.081Z,98930.86
2023-04-06T10:51:28.981Z,98927.92
2023-04-06T10:53:57.050Z,98933.77
2023-04-06T10:56:27.970Z,98932.56
2023-04-06T10:58:59.600Z,98938.06
2023-04-06T11:01:29.223Z,98932.72
2023-04-06T11:04:01.678Z,98936.99
2023-04-06T11:06:33.747Z,98935.78
2023-04-06T11:09:02.923Z,98937.00
2023-04-06T11:11:32.054Z,98935.62
2023-04-06T11:14:04.545Z,98937.67
2023-04-06T11:16:34.199Z,98941.08
2023-04-06T11:19:04.929Z,98942.63
2023-04-06T11:21:36.578Z,98946.73
2023-04-06T11:24:14.229Z,98947.44
2023-04-06T11:27:08.875Z,98951.04
2023-04-06T11:29:39.129Z,98954.15
2023-04-06T11:32:08.515Z,98954.13
2023-04-06T11:34:39.945Z,98953.77
2023-04-06T11:37:11.783Z,98959.63
2023-04-06T11:39:41.721Z,98959.63
2023-04-06T11:42:11.200Z,98963.40
2023-04-06T11:44:50.259Z,98964.09
2023-04-06T11:47:19.976Z,98968.20
2023-04-06T11:49:51.484Z,98969.92
2023-04-06T11:52:21.548Z,98968.20
2023-04-06T11:54:50.432Z,98971.29
2023-04-06T11:57:26.661Z,98965.63
2023-04-06T11:59:55.010Z,98965.63
2023-04-06T12:02:23.259Z,98969.55
2023-04-06T12:04:51.494Z,98973.33
2023-04-06T12:07:20.571Z,98970.04
2023-04-06T12:09:48.628Z,98973.10
2023-04-06T12:12:17.230Z,98968.24
2023-04-06T12:14:45.520Z,98966.66
2023-04-06T12:17:14.277Z,98967.49
2023-04-06T12:19:42.490Z,98969.19
2023-04-06T12:22:11.030Z,98967.30
2023-04-06T12:24:39.419Z,98967.96
2023-04-06T12:27:10.669Z,98971.04
2023-04-06T12:29:40.769Z,98969.81
2023-04-06T12:32:09.656Z,98968.05
2023-04-06T12:34:41.957Z,98964.39
2023-04-06T12:37:10.584Z,98968.69
2023-04-06T12:39:45.613Z,98966.77
2023-04-06T12:42:16.050Z,98970.16
2023-04-06T12:44:48.577Z,98968.92
2023-04-06T12:47:17.309Z,98971.31
2023-04-06T12:49:45.764Z,98967.50
2023-04-06T12:52:16.721Z,98969.21
2023-04-06T12:54:46.125Z,98974.55
2023-04-06T12:57:14.695Z,98971.63
2023-04-06T12:59:47.570Z,98973.35
2023-04-06T13:02:17.503Z,98972.30
2023-04-06T13:04:45.573Z,98972.61
2023-04-06T13:07:17.509Z,98972.41
2023-04-06T13:09:48.419Z,98970.66
2023-04-06T13:12:17.385Z,98972.53
2023-04-06T13:14:53.625Z,98979.40
2023-04-06T13:17:22.277Z,98980.11
2023-04-06T13:19:51.085Z,98978.73
2023-04-06T13:22:21.041Z,98979.77
2023-04-06T13:24:49.235Z,98981.46
2023-04-06T13:27:17.534Z,98982.11
2023-04-06T13:29:46.328Z,98984.65
2023-04-06T13:32:15.147Z,98980.80
2023-04-06T13:34:46.110Z,98977.84
2023-04-06T13:37:17.949Z,98979.18
2023-04-06T13:39:48.599Z,98983.47
2023-04-06T13:42:17.532Z,98978.64
2023-04-06T13:44:48.936Z,98978.80
2023-04-06T13:47:24.013Z,98985.68
2023-04-06T13:49:53.830Z,98979.46
2023-04-06T13:52:22.876Z,98979.81
2023-04-06T13:54:51.480Z,98984.64
2023-04-06T13:57:22.053Z,98979.34
2023-04-06T13:59:53.787Z,98978.53
2023-04-06T14:02:28.491Z,98973.95
2023-04-06T14:04:57.600Z,98984.33
2023-04-06T14:07:26.152Z,98980.55
2023-04-06T14:09:58.040Z,98984.89
2023-04-06T14:12:26.511Z,98987.16
2023-04-06T14:14:57.746Z,98987.91
2023-04-06T14:17:26.922Z,98986.20
2023-04-06T14:20:03.625Z,98985.70
2023-04-06T14:22:36.956Z,98985.02
2023-04-06T14:25:05.544Z,98983.33
2023-04-06T14:27:34.204Z,98985.80
2023-04-06T14:30:03.031Z,98985.48
2023-04-06T14:32:33.578Z,98988.76
2023-04-06T14:35:01.964Z,98987.55
2023-04-06T14:37:34.360Z,98988.79
2023-04-06T14:40:06.498Z,98989.14
2023-04-06T14:42:41.474Z,98989.86
2023-04-06T14:45:10.333Z,98989.34
2023-04-06T14:47:39.640Z,98984.50
2023-04-06T14:50:09.032Z,98988.97
2023-04-06T14:52:42.106Z,98985.54
2023-04-06T14:55:10.574Z,98990.20
2023-04-06T14:57:39.070Z,98993.48
2023-04-06T15:00:10.655Z,98989.50
2023-04-06T15:02:41.310Z,98992.61
2023-04-06T15:05:10.885Z,98991.60
2023-04-06T15:07:40.567Z,98994.00
2023-04-06T15:10:10.931Z,98991.59
2023-04-06T15:12:47.239Z,98993.33
2023-04-06T15:15:16.068Z,98995.57
2023-04-06T15:17:46.810Z,98993.71
2023-04-06T15:20:20.568Z,98993.20
2023-04-06T15:22:49.508Z,98999.73
2023-04-06T15:25:18.445Z,98998.88
2023-04-06T15:27:50.941Z,99000.77
2023-04-06T15:30:26.283Z,99001.64
2023-04-06T15:33:01.701Z,99001.64
2023-04-06T15:35:30.360Z,99005.77
2023-04-06T15:38:01.398Z,99011.11
2023-04-06T15:40:31.274Z,99015.23
2023-04-06T15:43:10.120Z,99020.96
2023-04-06T15:45:41.951Z,99028.38
2023-04-06T15:48:12.807Z,99024.84
2023-04-06T15:50:41.801Z,99033.65
2023-04-06T15:53:13.257Z,99034.71
2023-04-06T15:55:50.999Z,99035.27
2023-04-06T15:58:34.796Z,99034.08
2023-04-06T16:01:14.735Z,99033.23
2023-04-06T16:03:45.038Z,99036.68
2023-04-06T16:06:13.578Z,99035.83
2023-04-06T16:08:41.865Z,99037.90
2023-04-06T16:11:11.088Z,99037.90
2023-04-06T16:13:39.592Z,99040.66
2023-04-06T16:16:09.571Z,99042.38
2023-04-06T16:18:41.431Z,99048.59
2023-04-06T16:21:14.114Z,99051.36
2023-04-06T16:23:47.756Z,99054.79
2023-04-06T16:26:18.250Z,99055.49
2023-04-06T16:28:49.684Z,99057.73
2023-04-06T16:31:22.990Z,99055.69
2023-04-06T16:33:56.361Z,99058.27
2023-04-06T16:36:27.063Z,99063.59
2023-04-06T16:38:56.821Z,99064.64
2023-04-06T16:41:27.042Z,99067.89
2023-04-06T16:43:58.309Z,99073.05
2023-04-06T16:46:34.487Z,99078.55
2023-04-06T16:49:04.314Z,99082.67
2023-04-06T16:51:33.878Z,99085.41
2023-04-06T16:54:03.455Z,99085.59
2023-04-06T16:56:33.075Z,99085.41
2023-04-06T16:59:01.137Z,99089.55
2023-04-06T17:01:30.056Z,99088.69
2023-04-06T17:03:58.745Z,99092.80
2023-04-06T17:06:30.238Z,99090.92
2023-04-06T17:09:00.013Z,99093.51
2023-04-06T17:11:43.770Z,99097.10
2023-04-06T17:14:16.148Z,99100.54
2023-04-06T17:16:44.736Z,99108.61
2023-04-06T17:19:15.456Z,99109.98
2023-04-06T17:21:46.390Z,99108.42
2023-04-06T17:24:15.200Z,99109.63
2023-04-06T17:26:54.959Z,99111.52
2023-04-06T17:29:26.378Z,99112.04
2023-04-06T17:31:55.866Z,99114.95
2023-04-06T17:34:24.570Z,99116.83
2023-04-06T17:36:52.700Z,99113.41
2023-04-06T17:39:21.144Z,99114.61
2023-04-06T17:41:49.709Z,99119.59
2023-04-06T17:44:19.324Z,99122.34
2023-04-06T17:46:47.652Z,99120.95
2023-04-06T17:49:15.927Z,99125.41
2023-04-06T17:51:45.257Z,99129.18
2023-04-06T17:54:15.759Z,99133.98
2023-04-06T17:56:44.497Z,99136.89
2023-04-06T17:59:13.407Z,99139.64
2023-04-06T18:01:52.111Z,99144.95
2023-04-06T18:04:20.756Z,99149.40
2023-04-06T18:06:49.122Z,99148.55
2023-04-06T18:09:18.614Z,99151.64
2023-04-06T18:11:48.902Z,99153.52
2023-04-06T18:14:17.091Z,99154.21
2023-04-06T18:16:45.684Z,99158.49
2023-04-06T18:19:13.691Z,99162.27
2023-04-06T18:21:41.947Z,99162.27
2023-04-06T18:24:18.718Z,99161.21
2023-04-06T18:26:53.041Z,99158.30
2023-04-06T18:29:21.895Z,99162.60
2023-04-06T18:31:54.789Z,99166.18
2023-04-06T18:34:23.077Z,99170.63
2023-04-06T18:36:51.604Z,99172.49
2023-04-06T18:39:19.694Z,99177.29
2023-04-06T18:41:50.492Z,99182.23
2023-04-06T18:44:19.007Z,99183.59
2023-04-06T18:46:48.495Z,99186.63
2023-04-06T18:49:16.710Z,99190.41
2023-04-06T18:51:48.219Z,99198.27
2023-04-06T18:54:16.567Z,99203.70
2023-04-06T18:56:44.918Z,99205.53
2023-04-06T18:59:14.047Z,99213.15
2023-04-06T19:01:46.930Z,99212.89
2023-04-06T19:04:15.983Z,99213.69
2023-04-06T19:06:44.698Z,99216.20
2023-04-06T19:09:20.064Z,99218.21
2023-04-06T19:11:49.178Z,99227.51
2023-04-06T19:14:17.396Z,99240.24
2023-04-06T19:16:52.489Z,99241.72
2023-04-06T19:19:21.140Z,99251.61
2023-04-06T19:21:55.212Z,99251.23
2023-04-06T19:24:23.691Z,99252.52
2023-04-06T19:26:52.274Z,99255.88
2023-04-06T19:29:22.980Z,99261.66
2023-04-06T19:31:52.119Z,99265.21
2023-04-06T19:34:24.136Z,99267.73
2023-04-06T19:36:56.193Z,99271.32
2023-04-06T19:39:29.564Z,99267.17
2023-04-06T19:41:59.524Z,99269.35
2023-04-06T19:44:27.751Z,99272.39
2023-04-06T19:46:56.316Z,99277.52
2023-04-06T19:49:28.567Z,99278.17
2023-04-06T19:57:23.140Z,99279.78
2023-04-06T19:59:58.999Z,99280.95
2023-04-06T20:02:27.927Z,99282.17
2023-04-06T20:04:59.882Z,99278.09
2023-04-06T20:07:29.938Z,99277.48
2023-04-06T20:10:04.072Z,99278.05
2023-04-06T20:12:37.606Z,99276.77
2023-04-06T20:15:12.533Z,99281.27
2023-04-06T20:17:46.769Z,99286.99
2023-04-06T20:20:15.525Z,99289.48
2023-04-06T20:22:50.176Z,99292.13
2023-04-06T20:25:22.028Z,99297.40
2023-04-06T20:27:56.742Z,99299.91
2023-04-06T20:30:27.070Z,99302.23
2023-04-06T20:33:04.170Z,99304.77
2023-04-06T20:35:38.905Z,99307.32
2023-04-06T20:38:49.303Z,99309.73
2023-04-06T20:41:41.370Z,99316.23
2023-04-06T20:44:21.280Z,99318.95
2023-04-06T20:46:53.049Z,99321.11
2023-04-06T20:49:30.833Z,99327.88
2023-04-06T20:52:01.488Z,99331.10
2023-04-06T20:54:30.027Z,99336.45
2023-04-06T20:56:59.990Z,99336.63
2023-04-06T20:59:31.371Z,99340.41
2023-04-06T21:02:02.057Z,99344.45
2023-04-06T21:04:31.568Z,99345.86
2023-04-06T21:06:59.908Z,99347.55
2023-04-06T21:09:31.841Z,99350.25
2023-04-06T21:12:06.255Z,99353.08
2023-04-06T21:14:50.138Z,99363.03
2023-04-06T21:17:28.959Z,99369.19
2023-04-06T21:19:57.070Z,99372.62
2023-04-06T21:22:25.486Z,99373.84
2023-04-06T21:24:55.952Z,99375.23
2023-04-06T21:27:24.948Z,99373.78
2023-04-06T21:29:54.303Z,99373.73
2023-04-06T21:32:22.516Z,99376.80
2023-04-06T21:34:54.171Z,99378.95
2023-04-06T21:37:22.355Z,99382.77
2023-04-06T21:39:53.424Z,99385.42
2023-04-06T21:42:25.228Z,99387.08
2023-04-06T21:44:54.544Z,99387.88
2023-04-06T21:47:35.034Z,99390.59
2023-04-06T21:50:19.631Z,99395.88
2023-04-06T21:52:48.100Z,99398.43
2023-04-06T21:55:19.125Z,99396.83
2023-04-06T21:57:51.791Z,99397.27
2023-04-06T22:00:28.664Z,99398.59
2023-04-06T22:02:58.863Z,99397.90
2023-04-06T22:05:29.719Z,99398.08
2023-04-06T22:08:02.934Z,99399.92
2023-04-06T22:10:40.604Z,99403.34
2023-04-06T22:13:15.776Z,99409.77
2023-04-06T22:15:44.402Z,99409.74
2023-04-06T22:18:12.854Z,99411.95
2023-04-06T22:20:41.078Z,99414.25
2023-04-06T22:23:15.816Z,99417.09
2023-04-06T22:25:51.889Z,99416.83
2023-04-06T22:28:21.201Z,99418.50
2023-04-06T22:30:49.902Z,99420.68
2023-04-06T22:33:21.725Z,99418.93
2023-04-06T22:35:49.947Z,99417.56
2023-04-06T22:38:18.353Z,99417.23
2023-04-06T22:40:46.668Z,99417.75
2023-04-06T22:43:15.066Z,99420.31
2023-04-06T22:45:46.410Z,99422.36
2023-04-06T22:48:17.957Z,99423.36
2023-04-06T22:50:54.720Z,99422.77
2023-04-06T22:53:25.795Z,99423.71
2023-04-06T22:55:57.136Z,99422.02
2023-04-06T22:58:25.744Z,99425.90
2023-04-06T23:00:53.906Z,99422.92
2023-04-06T23:03:25.302Z,99426.23
2023-04-06T23:05:54.217Z,99430.77
2023-04-06T23:08:22.543Z,99434.63
2023-04-06T23:10:51.357Z,99436.80
2023-04-06T23:13:19.657Z,99438.98
2023-04-06T23:15:48.673Z,99436.67
2023-04-06T23:18:18.821Z,99437.31
2023-04-06T23:20:47.784Z,99435.23
2023-04-06T23:23:16.632Z,99436.58
2023-04-06T23:25:45.892Z,99434.50
2023-04-06T23:28:14.030Z,99438.92
2023-04-06T23:30:43.657Z,99441.98
2023-04-06T23:33:12.872Z,99444.54
2023-04-06T23:35:41.373Z,99443.91
2023-04-06T23:38:09.641Z,99450.29
2023-04-06T23:40:38.857Z,99452.96
2023-04-06T23:43:07.162Z,99455.92
2023-04-06T23:45:35.574Z,99457.91
2023-04-06T23:48:10.966Z,99453.33
2023-04-06T23:50:39.563Z,99454.23
2023-04-06T23:53:10.501Z,99455.39
2023-04-06T23:55:38.990Z,99460.69
2023-04-06T23:58:07.163Z,99461.91
